createdAt,value
2018-11-28T00:00:28.883Z,0.20
2018-11-28T00:02:56.837Z,0.23
2018-11-28T00:05:24.263Z,0.20
2018-11-28T00:07:51.729Z,0.13
2018-11-28T00:10:19.147Z,0.25
2018-11-28T00:12:46.639Z,0.24
2018-11-28T00:15:15.056Z,0.25
2018-11-28T00:17:42.598Z,0.21
2018-11-28T00:20:15.222Z,0.22
2018-11-28T00:22:42.994Z,0.23
2018-11-28T00:25:11.442Z,0.27
2018-11-28T00:27:39.450Z,0.28
2018-11-28T00:30:11.262Z,0.25
2018-11-28T00:32:38.792Z,0.24
2018-11-28T00:35:07.678Z,0.26
2018-11-28T00:37:35.124Z,0.23
2018-11-28T00:40:02.556Z,0.16
2018-11-28T00:42:31.201Z,0.15
2018-11-28T00:44:58.912Z,0.13
2018-11-28T00:47:26.356Z,0.10
2018-11-28T00:49:53.816Z,0.29
2018-11-28T00:52:21.264Z,0.36
2018-11-28T00:54:48.708Z,0.32
2018-11-28T00:57:16.104Z,0.37
2018-11-28T00:59:43.583Z,0.35
2018-11-28T01:02:11.181Z,0.26
2018-11-28T01:04:38.625Z,0.23
2018-11-28T01:07:06.433Z,0.26
2018-11-28T01:09:33.845Z,0.34
2018-11-28T01:12:01.287Z,0.39
2018-11-28T01:14:28.736Z,0.46
2018-11-28T01:16:56.187Z,0.49
2018-11-28T01:19:23.683Z,0.38
2018-11-28T01:21:51.137Z,0.32
2018-11-28T01:24:18.530Z,0.23
2018-11-28T01:26:46.914Z,0.18
2018-11-28T01:29:14.320Z,0.15
2018-11-28T01:31:41.789Z,0.14
2018-11-28T01:34:09.184Z,0.15
2018-11-28T01:36:37.386Z,0.16
2018-11-28T01:39:05.773Z,0.15
2018-11-28T01:41:33.199Z,0.15
2018-11-28T01:44:00.563Z,0.17
2018-11-28T01:46:28.099Z,0.15
2018-11-28T01:48:56.153Z,0.13
2018-11-28T01:51:23.568Z,0.13
2018-11-28T01:53:50.952Z,0.13
2018-11-28T01:56:18.479Z,0.10
2018-11-28T01:58:46.284Z,0.14
2018-11-28T02:01:13.714Z,0.14
2018-11-28T02:03:41.114Z,0.16
2018-11-28T02:06:08.548Z,0.11
2018-11-28T02:08:35.909Z,0.08
2018-11-28T02:11:03.347Z,0.08
2018-11-28T02:13:30.778Z,0.07
2018-11-28T02:15:58.164Z,0.08
2018-11-28T02:18:25.868Z,0.14
2018-11-28T02:20:53.277Z,0.10
2018-11-28T02:23:21.270Z,0.07
2018-11-28T02:25:48.702Z,0.06
2018-11-28T02:28:16.119Z,0.04
2018-11-28T02:30:43.518Z,0.08
2018-11-28T02:33:11.008Z,0.07
2018-11-28T02:35:38.385Z,0.09
2018-11-28T02:38:05.843Z,0.04
2018-11-28T02:40:33.233Z,0.03
2018-11-28T02:43:00.644Z,0.07
2018-11-28T02:45:28.200Z,0.07
2018-11-28T02:47:55.645Z,0.11
2018-11-28T02:50:23.030Z,0.07
2018-11-28T02:52:50.475Z,0.07
2018-11-28T02:55:18.278Z,-0.02
2018-11-28T02:57:47.653Z,-0.07
2018-11-28T03:00:18.178Z,-0.12
2018-11-28T03:02:45.578Z,-0.11
2018-11-28T03:05:13.532Z,-0.04
2018-11-28T03:07:40.925Z,-0.04
2018-11-28T03:10:11.110Z,-0.07
2018-11-28T03:12:38.514Z,-0.06
2018-11-28T03:15:07.735Z,-0.05
2018-11-28T03:17:35.114Z,-0.05
2018-11-28T03:20:02.538Z,-0.06
2018-11-28T03:22:29.968Z,-0.08
2018-11-28T03:24:57.429Z,-0.12
2018-11-28T03:27:24.839Z,-0.13
2018-11-28T03:29:52.743Z,-0.07
2018-11-28T03:32:20.181Z,-0.06
2018-11-28T03:34:47.564Z,0.00
2018-11-28T03:37:15.070Z,-0.01
2018-11-28T03:39:42.466Z,-0.09
2018-11-28T03:42:09.921Z,-0.09
2018-11-28T03:44:37.328Z,-0.10
2018-11-28T03:47:04.793Z,-0.12
2018-11-28T03:49:32.250Z,-0.10
2018-11-28T03:51:59.861Z,-0.12
2018-11-28T03:54:27.281Z,-0.13
2018-11-28T03:56:54.857Z,-0.11
2018-11-28T03:59:22.254Z,-0.12
2018-11-28T04:01:49.696Z,-0.08
2018-11-28T04:04:17.088Z,-0.08
2018-11-28T04:06:45.064Z,-0.10
2018-11-28T04:09:12.505Z,-0.10
2018-11-28T04:11:39.883Z,-0.11
2018-11-28T04:14:07.550Z,-0.06
2018-11-28T04:16:34.926Z,-0.09
2018-11-28T04:19:04.757Z,-0.06
2018-11-28T04:21:32.505Z,-0.07
2018-11-28T04:24:00.275Z,-0.08
2018-11-28T04:26:28.322Z,-0.09
2018-11-28T04:28:55.749Z,-0.05
2018-11-28T04:31:23.231Z,0.06
2018-11-28T04:33:50.832Z,0.09
2018-11-28T04:36:18.790Z,0.05
2018-11-28T04:38:46.382Z,0.09
2018-11-28T04:41:13.813Z,0.16
2018-11-28T04:43:41.286Z,0.09
2018-11-28T04:46:08.691Z,0.13
2018-11-28T04:48:36.131Z,0.11
2018-11-28T04:51:03.565Z,0.14
2018-11-28T04:53:31.027Z,0.11
2018-11-28T04:55:58.496Z,0.18
2018-11-28T04:58:25.925Z,0.16
2018-11-28T05:00:53.329Z,0.18
2018-11-28T05:03:20.726Z,0.16
2018-11-28T05:05:48.259Z,0.15
2018-11-28T05:08:15.739Z,0.13
2018-11-28T05:10:43.140Z,0.13
2018-11-28T05:13:10.533Z,0.12
2018-11-28T05:15:37.979Z,0.13
2018-11-28T05:18:05.462Z,0.09
2018-11-28T05:20:33.914Z,0.09
2018-11-28T05:23:01.821Z,0.09
2018-11-28T05:25:29.339Z,0.08
2018-11-28T05:27:57.896Z,0.15
2018-11-28T05:30:27.513Z,0.06
2018-11-28T05:32:54.935Z,-0.08
2018-11-28T05:35:25.266Z,-0.18
2018-11-28T05:37:53.072Z,-0.25
2018-11-28T05:40:21.795Z,-0.33
2018-11-28T05:42:49.365Z,-0.37
2018-11-28T05:45:17.841Z,-0.39
2018-11-28T05:47:45.316Z,-0.38
2018-11-28T05:50:14.256Z,-0.43
2018-11-28T05:52:41.679Z,-0.47
2018-11-28T05:55:10.460Z,-0.52
2018-11-28T05:57:37.884Z,-0.56
2018-11-28T06:00:11.741Z,-0.63
2018-11-28T06:02:39.201Z,-0.59
2018-11-28T06:05:08.066Z,-0.56
2018-11-28T06:07:35.536Z,-0.53
2018-11-28T06:10:03.086Z,-0.50
2018-11-28T06:12:30.495Z,-0.59
2018-11-28T06:14:58.015Z,-0.68
2018-11-28T06:17:25.560Z,-0.71
2018-11-28T06:19:52.974Z,-0.72
2018-11-28T06:22:21.236Z,-0.71
2018-11-28T06:24:48.650Z,-0.73
2018-11-28T06:27:17.028Z,-0.75
2018-11-28T06:29:44.461Z,-0.76
2018-11-28T06:32:11.859Z,-0.78
2018-11-28T06:34:40.527Z,-0.82
2018-11-28T06:37:07.935Z,-0.88
2018-11-28T06:39:35.377Z,-0.93
2018-11-28T06:42:02.866Z,-0.97
2018-11-28T06:44:30.296Z,-0.99
2018-11-28T06:46:57.736Z,-0.98
2018-11-28T06:49:25.155Z,-0.91
2018-11-28T06:51:53.227Z,-0.80
2018-11-28T06:54:21.245Z,-0.67
2018-11-28T06:56:48.631Z,-0.50
2018-11-28T06:59:16.047Z,-0.39
2018-11-28T07:01:43.502Z,-0.29
2018-11-28T07:04:10.920Z,-0.23
2018-11-28T07:06:38.432Z,-0.24
2018-11-28T07:09:07.325Z,-0.14
2018-11-28T07:11:35.399Z,-0.11
2018-11-28T07:14:02.820Z,-0.07
2018-11-28T07:16:30.297Z,-0.01
2018-11-28T07:19:13.194Z,0.05
2018-11-28T07:21:40.717Z,0.14
2018-11-28T07:24:08.256Z,0.25
2018-11-28T07:26:36.314Z,0.26
2018-11-28T07:29:04.087Z,0.39
2018-11-28T07:31:31.561Z,0.37
2018-11-28T07:33:58.976Z,0.37
2018-11-28T07:36:26.565Z,0.40
2018-11-28T07:38:54.252Z,0.42
2018-11-28T07:41:22.257Z,0.37
2018-11-28T07:43:50.170Z,0.39
2018-11-28T07:46:17.571Z,0.42
2018-11-28T07:48:45.041Z,0.43
2018-11-28T07:51:12.607Z,0.49
2018-11-28T07:53:40.141Z,0.51
2018-11-28T07:56:07.622Z,0.49
2018-11-28T07:58:35.062Z,0.46
2018-11-28T08:01:02.656Z,0.54
2018-11-28T08:03:30.730Z,0.56
2018-11-28T08:05:58.696Z,0.53
2018-11-28T08:08:26.151Z,0.54
2018-11-28T08:10:54.266Z,0.60
2018-11-28T08:13:22.407Z,0.62
2018-11-28T08:15:49.956Z,0.68
2018-11-28T08:18:17.366Z,0.69
2018-11-28T08:20:44.821Z,0.70
2018-11-28T08:23:12.253Z,0.69
2018-11-28T08:25:39.707Z,0.76
2018-11-28T08:28:07.742Z,0.83
2018-11-28T08:30:35.092Z,0.79
2018-11-28T08:33:02.499Z,0.79
2018-11-28T08:35:29.987Z,0.76
2018-11-28T08:37:57.466Z,0.80
2018-11-28T08:40:25.975Z,0.77
2018-11-28T08:42:54.687Z,0.79
2018-11-28T08:45:22.241Z,0.78
2018-11-28T08:47:51.076Z,0.85
2018-11-28T08:50:20.446Z,0.90
2018-11-28T08:52:47.922Z,1.00
2018-11-28T08:55:15.454Z,1.04
2018-11-28T08:57:43.439Z,1.03
2018-11-28T09:00:14.163Z,0.94
2018-11-28T09:02:41.642Z,0.86
2018-11-28T09:05:10.373Z,0.90
2018-11-28T09:07:38.037Z,0.91
2018-11-28T09:10:21.291Z,0.98
2018-11-28T09:12:49.645Z,0.96
2018-11-28T09:15:22.407Z,0.99
2018-11-28T09:17:50.062Z,1.03
2018-11-28T09:20:17.629Z,1.05
2018-11-28T09:22:45.068Z,1.14
2018-11-28T09:25:13.693Z,1.17
2018-11-28T09:27:41.752Z,1.26
2018-11-28T09:30:14.368Z,1.28
2018-11-28T09:32:41.784Z,1.27
2018-11-28T09:35:10.207Z,1.31
2018-11-28T09:37:37.622Z,1.25
2018-11-28T09:40:09.491Z,1.24
2018-11-28T09:42:37.597Z,1.26
2018-11-28T09:45:05.947Z,1.36
2018-11-28T09:47:33.382Z,1.60
2018-11-28T09:50:00.934Z,1.57
2018-11-28T09:52:29.212Z,1.61
2018-11-28T09:54:56.626Z,1.60
2018-11-28T09:57:24.026Z,1.66
2018-11-28T09:59:51.542Z,1.76
2018-11-28T10:02:19.174Z,1.81
2018-11-28T10:04:46.577Z,1.78
2018-11-28T10:07:14.059Z,1.81
2018-11-28T10:09:41.947Z,1.76
2018-11-28T10:12:09.410Z,1.76
2018-11-28T10:14:36.812Z,1.73
2018-11-28T10:17:04.565Z,1.77
2018-11-28T10:19:31.999Z,1.91
2018-11-28T10:21:59.502Z,1.93
2018-11-28T10:24:26.953Z,2.01
2018-11-28T10:26:54.438Z,2.16
2018-11-28T10:29:22.363Z,2.24
2018-11-28T10:31:50.432Z,2.34
2018-11-28T10:34:17.834Z,2.46
2018-11-28T10:36:45.379Z,2.40
2018-11-28T10:39:12.809Z,2.41
2018-11-28T10:41:40.245Z,2.42
2018-11-28T10:44:08.459Z,2.46
2018-11-28T10:46:35.955Z,2.51
2018-11-28T10:49:04.300Z,2.58
2018-11-28T10:51:31.754Z,2.69
2018-11-28T10:53:59.164Z,2.74
2018-11-28T10:56:26.666Z,2.83
2018-11-28T10:58:54.081Z,2.78
2018-11-28T11:01:25.103Z,2.78
2018-11-28T11:04:00.177Z,2.83
2018-11-28T11:06:33.098Z,2.89
2018-11-28T11:09:06.128Z,2.85
2018-11-28T11:11:39.181Z,2.80
2018-11-28T11:14:12.218Z,2.80
2018-11-28T11:16:39.638Z,2.88
2018-11-28T11:19:07.233Z,2.87
2018-11-28T11:21:35.233Z,2.89
2018-11-28T11:24:02.659Z,2.94
2018-11-28T11:26:30.030Z,3.01
2018-11-28T11:28:57.495Z,3.06
2018-11-28T11:31:25.069Z,3.12
2018-11-28T11:33:52.593Z,3.25
2018-11-28T11:36:20.709Z,3.31
2018-11-28T11:38:48.144Z,3.47
2018-11-28T11:41:15.619Z,3.48
2018-11-28T11:43:43.075Z,3.43
2018-11-28T11:46:10.549Z,3.60
2018-11-28T11:48:37.947Z,3.74
2018-11-28T11:51:05.685Z,3.86
2018-11-28T11:53:33.056Z,4.03
2018-11-28T11:56:00.478Z,4.13
2018-11-28T11:58:27.905Z,4.26
2018-11-28T12:00:55.350Z,4.35
2018-11-28T12:03:22.795Z,4.51
2018-11-28T12:05:53.505Z,4.72
2018-11-28T12:08:21.435Z,4.82
2018-11-28T12:10:48.932Z,4.69
2018-11-28T12:13:16.355Z,4.61
2018-11-28T12:15:43.815Z,4.59
2018-11-28T12:18:11.253Z,4.49
2018-11-28T12:20:53.464Z,4.36
2018-11-28T12:23:20.915Z,4.24
2018-11-28T12:25:48.354Z,3.99
2018-11-28T12:28:15.856Z,3.98
2018-11-28T12:30:43.324Z,4.01
2018-11-28T12:33:10.756Z,3.98
2018-11-28T12:35:38.337Z,4.00
2018-11-28T12:38:06.132Z,4.03
2018-11-28T12:40:34.373Z,4.08
2018-11-28T12:43:02.415Z,4.20
2018-11-28T12:45:29.898Z,4.20
2018-11-28T12:47:57.467Z,4.27
2018-11-28T12:50:26.133Z,4.34
2018-11-28T12:52:54.889Z,4.30
2018-11-28T12:55:22.681Z,4.30
2018-11-28T12:57:50.875Z,4.28
2018-11-28T13:00:20.528Z,4.20
2018-11-28T13:02:48.031Z,4.20
2018-11-28T13:05:19.522Z,4.19
2018-11-28T13:07:46.994Z,4.21
2018-11-28T13:10:26.218Z,4.23
2018-11-28T13:12:53.999Z,4.23
2018-11-28T13:15:22.252Z,4.33
2018-11-28T13:17:49.731Z,4.26
2018-11-28T13:20:18.151Z,4.18
2018-11-28T13:22:46.504Z,4.09
2018-11-28T13:25:16.989Z,4.16
2018-11-28T13:27:44.481Z,4.08
2018-11-28T13:30:16.050Z,4.05
2018-11-28T13:32:43.992Z,4.01
2018-11-28T13:35:12.450Z,3.79
2018-11-28T13:37:40.004Z,3.71
2018-11-28T13:40:09.932Z,3.51
2018-11-28T13:42:37.351Z,3.46
2018-11-28T13:45:09.009Z,3.33
2018-11-28T13:47:36.470Z,3.18
2018-11-28T13:50:04.744Z,3.07
2018-11-28T13:52:32.150Z,3.13
2018-11-28T13:57:27.150Z,2.88
2018-11-28T13:59:54.587Z,2.77
2018-11-28T14:02:22.020Z,2.74
2018-11-28T14:04:49.430Z,2.70
2018-11-28T14:07:16.992Z,2.61
2018-11-28T14:09:44.416Z,2.55
2018-11-28T14:12:11.933Z,2.56
2018-11-28T14:14:40.501Z,2.55
2018-11-28T14:17:06.830Z,2.47
2018-11-28T14:19:34.233Z,2.43
2018-11-28T14:22:01.742Z,2.40
2018-11-28T14:24:29.260Z,2.34
2018-11-28T14:26:56.770Z,2.39
2018-11-28T14:29:24.225Z,2.29
2018-11-28T14:31:51.685Z,2.29
2018-11-28T14:34:19.145Z,2.26
2018-11-28T14:36:46.618Z,2.12
2018-11-28T14:39:14.047Z,2.13
2018-11-28T14:41:41.495Z,2.15
2018-11-28T14:44:08.935Z,2.09
2018-11-28T14:46:36.354Z,2.05
2018-11-28T14:49:03.910Z,1.93
2018-11-28T14:51:31.370Z,1.89
2018-11-28T14:53:58.855Z,1.91
2018-11-28T14:56:26.284Z,1.87
2018-11-28T14:58:53.710Z,1.79
2018-11-28T15:01:21.116Z,1.74
2018-11-28T15:03:48.562Z,1.79
2018-11-28T15:06:24.540Z,1.75
2018-11-28T15:08:52.103Z,1.72
2018-11-28T15:11:19.500Z,1.61
2018-11-28T15:13:46.994Z,1.53
2018-11-28T15:16:14.456Z,1.45
2018-11-28T15:18:41.958Z,1.53
2018-11-28T15:21:10.330Z,1.49
2018-11-28T15:23:38.294Z,1.43
2018-11-28T15:26:05.923Z,1.33
2018-11-28T15:28:33.370Z,1.36
2018-11-28T15:31:00.888Z,1.32
2018-11-28T15:33:28.371Z,1.34
2018-11-28T15:35:55.871Z,1.32
2018-11-28T15:38:23.340Z,1.34
2018-11-28T15:40:50.956Z,1.27
2018-11-28T15:43:18.413Z,1.28
2018-11-28T15:45:45.861Z,1.28
2018-11-28T15:48:13.315Z,1.22
2018-11-28T15:50:40.796Z,1.10
2018-11-28T15:53:08.290Z,1.15
2018-11-28T15:55:35.777Z,1.22
2018-11-28T15:58:03.238Z,1.14
2018-11-28T16:00:30.701Z,1.11
2018-11-28T16:02:58.186Z,1.15
2018-11-28T16:05:25.622Z,1.16
2018-11-28T16:07:53.095Z,1.13
2018-11-28T16:10:26.222Z,1.07
2018-11-28T16:12:53.666Z,0.99
2018-11-28T16:15:23.656Z,1.01
2018-11-28T16:17:51.176Z,0.99
2018-11-28T16:20:18.660Z,1.00
2018-11-28T16:22:46.132Z,1.01
2018-11-28T16:25:13.716Z,1.07
2018-11-28T16:27:41.611Z,1.07
2018-11-28T16:30:14.709Z,1.12
2018-11-28T16:32:43.134Z,1.17
2018-11-28T16:35:16.557Z,1.13
2018-11-28T16:37:44.173Z,1.09
2018-11-28T16:40:13.403Z,1.11
2018-11-28T16:42:40.933Z,1.12
2018-11-28T16:45:12.937Z,1.15
2018-11-28T16:47:40.368Z,1.10
2018-11-28T16:50:08.752Z,1.09
2018-11-28T16:52:36.325Z,1.09
2018-11-28T16:55:03.951Z,1.03
2018-11-28T16:57:31.467Z,1.12
2018-11-28T16:59:58.985Z,1.05
2018-11-28T17:02:26.447Z,1.10
2018-11-28T17:04:53.935Z,1.06
2018-11-28T17:07:21.378Z,1.08
2018-11-28T17:09:48.894Z,1.07
2018-11-28T17:12:16.456Z,1.05
2018-11-28T17:14:43.972Z,1.08
2018-11-28T17:17:11.455Z,1.09
2018-11-28T17:19:38.967Z,1.08
2018-11-28T17:22:06.437Z,1.06
2018-11-28T17:24:33.877Z,1.06
2018-11-28T17:27:01.391Z,1.06
2018-11-28T17:29:28.884Z,1.02
2018-11-28T17:31:56.346Z,1.04
2018-11-28T17:34:23.847Z,0.98
2018-11-28T17:36:51.276Z,1.02
2018-11-28T17:39:18.727Z,1.03
2018-11-28T17:41:46.250Z,0.99
2018-11-28T17:44:13.660Z,0.93
2018-11-28T17:46:41.158Z,0.87
2018-11-28T17:49:08.636Z,0.87
2018-11-28T17:51:36.174Z,0.87
2018-11-28T17:54:03.600Z,0.86
2018-11-28T17:56:31.164Z,0.86
2018-11-28T17:58:58.580Z,0.91
2018-11-28T18:01:26.725Z,0.92
2018-11-28T18:03:54.235Z,0.86
2018-11-28T18:06:21.751Z,0.82
2018-11-28T18:08:49.227Z,0.76
2018-11-28T18:11:16.710Z,0.75
2018-11-28T18:13:44.399Z,0.73
2018-11-28T18:16:12.018Z,0.73
2018-11-28T18:18:39.438Z,0.64
2018-11-28T18:21:06.934Z,0.63
2018-11-28T18:23:34.496Z,0.70
2018-11-28T18:26:04.540Z,0.66
2018-11-28T18:28:31.974Z,0.63
2018-11-28T18:30:59.425Z,0.68
2018-11-28T18:33:26.885Z,0.61
2018-11-28T18:35:54.382Z,0.58
2018-11-28T18:38:21.954Z,0.54
2018-11-28T18:40:49.476Z,0.50
2018-11-28T18:43:16.925Z,0.63
2018-11-28T18:45:46.312Z,0.63
2018-11-28T18:48:13.778Z,0.63
2018-11-28T18:50:41.303Z,0.62
2018-11-28T18:53:08.782Z,0.55
2018-11-28T18:55:36.269Z,0.59
2018-11-28T18:58:03.728Z,0.57
2018-11-28T19:00:31.259Z,0.48
2018-11-28T19:02:58.762Z,0.49
2018-11-28T19:05:26.292Z,0.43
2018-11-28T19:07:53.764Z,0.41
2018-11-28T19:10:26.353Z,0.41
2018-11-28T19:12:50.230Z,0.44
2018-11-28T19:15:20.834Z,0.42
2018-11-28T19:17:48.605Z,0.38
2018-11-28T19:20:18.006Z,0.36
2018-11-28T19:22:46.165Z,0.37
2018-11-28T19:25:36.255Z,0.27
2018-11-28T19:28:13.763Z,0.33
2018-11-28T19:30:41.463Z,0.38
2018-11-28T19:33:10.087Z,0.32
2018-11-28T19:35:37.616Z,0.31
2018-11-28T19:38:06.838Z,0.28
2018-11-28T19:41:08.400Z,0.25
2018-11-28T19:43:35.855Z,0.21
2018-11-28T19:46:03.365Z,0.22
2018-11-28T19:48:30.864Z,0.21
2018-11-28T19:50:59.278Z,0.10
2018-11-28T19:53:26.755Z,0.12
2018-11-28T19:55:54.365Z,0.15
2018-11-28T19:58:21.821Z,0.18
2018-11-28T20:00:49.277Z,0.16
2018-11-28T20:03:16.836Z,0.12
2018-11-28T20:05:44.361Z,0.10
2018-11-28T20:08:12.131Z,0.13
2018-11-28T20:10:39.642Z,0.15
2018-11-28T20:13:08.413Z,0.13
2018-11-28T20:15:35.921Z,0.03
2018-11-28T20:18:03.370Z,0.07
2018-11-28T20:20:31.196Z,0.04
2018-11-28T20:22:58.676Z,0.05
2018-11-28T20:25:26.222Z,0.09
2018-11-28T20:27:55.861Z,0.08
2018-11-28T20:30:28.007Z,0.13
2018-11-28T20:32:55.560Z,0.16
2018-11-28T20:35:23.128Z,0.12
2018-11-28T20:37:50.636Z,0.12
2018-11-28T20:40:18.248Z,0.10
2018-11-28T20:42:48.276Z,0.08
2018-11-28T20:45:15.885Z,0.06
2018-11-28T20:47:43.337Z,0.02
2018-11-28T20:50:16.027Z,0.03
2018-11-28T20:52:45.444Z,0.03
2018-11-28T20:55:13.207Z,-0.02
2018-11-28T20:57:41.485Z,0.04
2018-11-28T21:00:11.615Z,0.08
2018-11-28T21:02:39.079Z,0.06
2018-11-28T21:05:06.641Z,0.05
2018-11-28T21:07:34.076Z,0.05
2018-11-28T21:10:07.215Z,0.07
2018-11-28T21:12:34.653Z,0.04
2018-11-28T21:15:02.221Z,0.06
2018-11-28T21:17:29.787Z,0.05
2018-11-28T21:19:57.304Z,0.06
2018-11-28T21:22:24.777Z,0.07
2018-11-28T21:24:52.252Z,0.07
2018-11-28T21:27:19.711Z,0.08
2018-11-28T21:29:47.417Z,0.06
2018-11-28T21:32:14.872Z,0.01
2018-11-28T21:34:42.306Z,0.02
2018-11-28T21:37:09.836Z,-0.03
2018-11-28T21:39:37.263Z,-0.12
2018-11-28T21:42:04.946Z,-0.15
2018-11-28T21:44:32.336Z,-0.15
2018-11-28T21:46:59.757Z,-0.20
2018-11-28T21:49:27.181Z,-0.15
2018-11-28T21:51:54.631Z,-0.12
2018-11-28T21:54:22.066Z,-0.12
2018-11-28T21:56:49.533Z,-0.12
2018-11-28T21:59:17.259Z,-0.16
2018-11-28T22:01:44.896Z,-0.19
2018-11-28T22:04:12.334Z,-0.21
2018-11-28T22:06:39.757Z,-0.20
2018-11-28T22:09:09.668Z,-0.18
2018-11-28T22:11:37.208Z,-0.15
2018-11-28T22:14:05.331Z,-0.14
2018-11-28T22:16:32.723Z,-0.07
2018-11-28T22:19:00.677Z,-0.06
2018-11-28T22:21:28.636Z,-0.03
2018-11-28T22:23:57.012Z,-0.03
2018-11-28T22:26:24.538Z,-0.01
2018-11-28T22:28:52.042Z,0.02
2018-11-28T22:31:20.176Z,-0.04
2018-11-28T22:33:47.662Z,-0.01
2018-11-28T22:36:15.046Z,0.04
2018-11-28T22:38:42.966Z,-0.02
2018-11-28T22:41:10.740Z,-0.03
2018-11-28T22:43:38.229Z,-0.04
2018-11-28T22:46:06.000Z,-0.04
2018-11-28T22:48:33.382Z,-0.06
2018-11-28T22:51:00.817Z,0.03
2018-11-28T22:53:28.200Z,0.04
2018-11-28T22:55:55.699Z,0.03
2018-11-28T22:58:23.092Z,0.01
2018-11-28T23:00:56.165Z,0.00
2018-11-28T23:03:23.588Z,0.02
2018-11-28T23:05:51.579Z,0.01
2018-11-28T23:08:19.922Z,0.05
2018-11-28T23:10:47.813Z,0.04
2018-11-28T23:13:16.596Z,0.02
2018-11-28T23:15:44.080Z,-0.03
2018-11-28T23:18:11.738Z,-0.04
2018-11-28T23:20:39.158Z,-0.05
2018-11-28T23:23:07.604Z,-0.04
2018-11-28T23:25:35.037Z,-0.09
2018-11-28T23:28:02.532Z,-0.12
2018-11-28T23:30:30.041Z,-0.11
2018-11-28T23:32:57.523Z,-0.14
2018-11-28T23:35:25.166Z,-0.14
2018-11-28T23:38:02.107Z,-0.11
2018-11-28T23:40:29.519Z,-0.11
2018-11-28T23:42:56.972Z,-0.08
2018-11-28T23:45:24.932Z,-0.05
2018-11-28T23:47:52.363Z,-0.10
2018-11-28T23:50:21.647Z,-0.11
2018-11-28T23:52:49.647Z,-0.03
2018-11-28T23:55:19.842Z,-0.09
2018-11-28T23:57:48.338Z,-0.05
